createdAt,value
2018-12-15T00:02:05.525Z,3.29
2018-12-15T00:04:34.631Z,3.30
2018-12-15T00:07:03.710Z,3.30
2018-12-15T00:09:32.788Z,3.32
2018-12-15T00:12:01.889Z,3.32
2018-12-15T00:14:30.971Z,3.32
2018-12-15T00:17:05.545Z,3.31
2018-12-15T00:19:29.196Z,3.30
2018-12-15T00:21:58.498Z,3.31
2018-12-15T00:24:27.343Z,3.30
2018-12-15T00:26:56.450Z,3.30
2018-12-15T00:29:25.547Z,3.31
2018-12-15T00:31:54.602Z,3.31
2018-12-15T00:34:23.718Z,3.30
2018-12-15T00:36:52.802Z,3.31
2018-12-15T00:39:21.882Z,3.32
2018-12-15T00:41:51.251Z,3.32
2018-12-15T00:44:20.325Z,3.32
2018-12-15T00:46:49.387Z,3.32
2018-12-15T00:49:18.477Z,3.33
2018-12-15T00:51:47.551Z,3.33
2018-12-15T00:54:16.667Z,3.34
2018-12-15T00:56:51.130Z,3.34
2018-12-15T00:59:20.222Z,3.33
2018-12-15T01:01:49.286Z,3.33
2018-12-15T01:04:18.414Z,3.33
2018-12-15T01:06:47.494Z,3.34
2018-12-15T01:09:16.559Z,3.32
2018-12-15T01:11:45.668Z,3.33
2018-12-15T01:14:14.739Z,3.34
2018-12-15T01:16:43.809Z,3.35
2018-12-15T01:19:12.904Z,3.35
2018-12-15T01:21:41.995Z,3.35
2018-12-15T01:24:11.063Z,3.36
2018-12-15T01:26:53.348Z,3.36
2018-12-15T01:29:22.420Z,3.36
2018-12-15T01:31:51.491Z,3.37
2018-12-15T01:34:20.596Z,3.38
2018-12-15T01:36:49.676Z,3.38
2018-12-15T01:39:19.690Z,3.37
2018-12-15T01:41:47.868Z,3.36
2018-12-15T01:44:16.932Z,3.36
2018-12-15T01:46:46.013Z,3.36
2018-12-15T01:49:15.128Z,3.36
2018-12-15T01:51:44.197Z,3.36
2018-12-15T01:54:13.275Z,3.34
2018-12-15T01:56:42.376Z,3.34
2018-12-15T01:59:11.451Z,3.34
2018-12-15T02:01:40.529Z,3.34
2018-12-15T02:04:09.622Z,3.34
2018-12-15T02:06:38.696Z,3.34
2018-12-15T02:09:07.789Z,3.34
2018-12-15T02:11:36.933Z,3.35
2018-12-15T02:14:06.007Z,3.36
2018-12-15T02:16:35.078Z,3.36
2018-12-15T02:19:04.263Z,3.35
2018-12-15T02:21:33.328Z,3.34
2018-12-15T02:24:02.393Z,3.34
2018-12-15T02:26:31.497Z,3.33
2018-12-15T02:29:00.558Z,3.33
2018-12-15T02:31:29.641Z,3.31
2018-12-15T02:33:58.771Z,3.32
2018-12-15T02:36:27.842Z,3.31
2018-12-15T02:38:56.921Z,3.30
2018-12-15T02:41:26.028Z,3.30
2018-12-15T02:43:55.099Z,3.30
2018-12-15T02:46:24.217Z,3.31
2018-12-15T02:48:53.314Z,3.30
2018-12-15T02:51:22.382Z,3.30
2018-12-15T02:53:51.453Z,3.30
2018-12-15T02:56:20.594Z,3.32
2018-12-15T02:58:49.660Z,3.32
2018-12-15T03:01:18.741Z,3.32
2018-12-15T03:03:47.820Z,3.33
2018-12-15T03:06:17.922Z,3.34
2018-12-15T03:08:46.981Z,3.34
2018-12-15T03:11:16.153Z,3.35
2018-12-15T03:13:45.228Z,3.34
2018-12-15T03:16:14.283Z,3.32
2018-12-15T03:18:43.499Z,3.34
2018-12-15T03:21:12.566Z,3.35
2018-12-15T03:23:41.640Z,3.34
2018-12-15T03:26:10.729Z,3.35
2018-12-15T03:28:39.807Z,3.34
2018-12-15T03:31:08.876Z,3.35
2018-12-15T03:33:37.979Z,3.35
2018-12-15T03:36:07.049Z,3.35
2018-12-15T03:38:36.110Z,3.36
2018-12-15T03:41:05.238Z,3.36
2018-12-15T03:43:34.315Z,3.37
2018-12-15T03:46:03.386Z,3.36
2018-12-15T03:48:32.486Z,3.37
2018-12-15T03:51:01.562Z,3.37
2018-12-15T03:53:30.695Z,3.36
2018-12-15T03:56:00.072Z,3.38
2018-12-15T03:58:29.201Z,3.37
2018-12-15T04:00:58.266Z,3.40
2018-12-15T04:03:27.389Z,3.37
2018-12-15T04:05:56.454Z,3.38
2018-12-15T04:08:25.519Z,3.37
2018-12-15T04:10:54.611Z,3.38
2018-12-15T04:13:23.679Z,3.38
2018-12-15T04:15:52.742Z,3.36
2018-12-15T04:18:21.835Z,3.37
2018-12-15T04:20:50.898Z,3.36
2018-12-15T04:23:19.969Z,3.37
2018-12-15T04:25:49.198Z,3.37
2018-12-15T04:28:18.271Z,3.36
2018-12-15T04:30:47.354Z,3.36
2018-12-15T04:33:16.439Z,3.36
2018-12-15T04:35:45.507Z,3.37
2018-12-15T04:38:14.571Z,3.37
2018-12-15T04:40:43.659Z,3.38
2018-12-15T04:43:12.727Z,3.38
2018-12-15T04:45:41.798Z,3.37
2018-12-15T04:48:11.240Z,3.35
2018-12-15T04:50:39.988Z,3.35
2018-12-15T04:53:09.061Z,3.35
2018-12-15T04:55:38.168Z,3.36
2018-12-15T04:58:07.227Z,3.37
2018-12-15T05:00:36.297Z,3.37
2018-12-15T05:03:05.393Z,3.39
2018-12-15T05:05:34.456Z,3.39
2018-12-15T05:08:03.526Z,3.39
2018-12-15T05:10:32.664Z,3.39
2018-12-15T05:13:01.915Z,3.35
2018-12-15T05:15:30.981Z,3.35
2018-12-15T05:18:00.089Z,3.35
2018-12-15T05:20:29.165Z,3.35
2018-12-15T05:22:58.232Z,3.35
2018-12-15T05:25:27.340Z,3.35
2018-12-15T05:27:56.428Z,3.33
2018-12-15T05:30:25.493Z,3.33
2018-12-15T05:32:54.778Z,3.34
2018-12-15T05:35:23.858Z,3.34
2018-12-15T05:37:52.931Z,3.35
2018-12-15T05:40:22.028Z,3.36
2018-12-15T05:42:51.095Z,3.38
2018-12-15T05:45:20.162Z,3.37
2018-12-15T05:47:49.250Z,3.37
2018-12-15T05:50:18.315Z,3.37
2018-12-15T05:52:47.374Z,3.37
2018-12-15T05:55:16.480Z,3.36
2018-12-15T05:57:45.545Z,3.35
2018-12-15T06:00:14.617Z,3.34
2018-12-15T06:02:43.708Z,3.34
2018-12-15T06:05:12.778Z,3.32
2018-12-15T06:07:41.850Z,3.33
2018-12-15T06:10:11.022Z,3.30
2018-12-15T06:12:40.086Z,3.32
2018-12-15T06:15:09.155Z,3.33
2018-12-15T06:17:38.347Z,3.32
2018-12-15T06:20:07.414Z,3.33
2018-12-15T06:22:36.583Z,3.33
2018-12-15T06:25:05.694Z,3.31
2018-12-15T06:27:34.769Z,3.30
2018-12-15T06:30:03.827Z,3.29
2018-12-15T06:32:32.915Z,3.29
2018-12-15T06:35:02.004Z,3.28
2018-12-15T06:37:31.054Z,3.27
2018-12-15T06:40:00.187Z,3.25
2018-12-15T06:42:29.258Z,3.25
2018-12-15T06:44:58.326Z,3.27
2018-12-15T06:47:27.420Z,3.27
2018-12-15T06:49:56.472Z,3.28
2018-12-15T06:52:25.542Z,3.28
2018-12-15T06:54:54.657Z,3.24
2018-12-15T06:57:23.715Z,3.22
2018-12-15T06:59:52.777Z,3.22
2018-12-15T07:02:21.891Z,3.20
2018-12-15T07:04:50.945Z,3.22
2018-12-15T07:07:20.014Z,3.23
2018-12-15T07:09:49.103Z,3.23
2018-12-15T07:12:18.165Z,3.24
2018-12-15T07:14:47.237Z,3.26
2018-12-15T07:17:16.324Z,3.25
2018-12-15T07:19:45.386Z,3.27
2018-12-15T07:22:14.448Z,3.29
2018-12-15T07:24:43.931Z,3.31
2018-12-15T07:27:12.992Z,3.33
2018-12-15T07:29:42.063Z,3.34
2018-12-15T07:32:11.156Z,3.37
2018-12-15T07:34:40.225Z,3.38
2018-12-15T07:37:09.288Z,3.39
2018-12-15T07:39:38.380Z,3.42
2018-12-15T07:42:07.443Z,3.44
2018-12-15T07:44:36.503Z,3.45
2018-12-15T07:47:05.636Z,3.48
2018-12-15T07:49:34.703Z,3.49
2018-12-15T07:52:03.771Z,3.50
2018-12-15T07:54:32.889Z,3.52
2018-12-15T07:57:01.953Z,3.52
2018-12-15T07:59:31.011Z,3.49
2018-12-15T08:02:00.144Z,3.49
2018-12-15T08:04:29.204Z,3.45
2018-12-15T08:07:10.600Z,3.45
2018-12-15T08:09:39.669Z,3.43
2018-12-15T08:12:10.521Z,3.42
2018-12-15T08:14:39.621Z,3.41
2018-12-15T08:17:08.685Z,3.41
2018-12-15T08:19:37.750Z,3.40
2018-12-15T08:22:06.853Z,3.38
2018-12-15T08:24:35.923Z,3.36
2018-12-15T08:27:05.002Z,3.34
2018-12-15T08:29:34.213Z,3.31
2018-12-15T08:32:03.288Z,3.30
2018-12-15T08:34:32.373Z,3.30
2018-12-15T08:37:01.462Z,3.30
2018-12-15T08:39:30.524Z,3.26
2018-12-15T08:41:59.586Z,3.21
2018-12-15T08:44:28.687Z,3.13
2018-12-15T08:46:57.743Z,3.09
2018-12-15T08:49:26.799Z,3.05
2018-12-15T08:51:55.939Z,3.05
2018-12-15T08:54:25.009Z,2.98
2018-12-15T08:56:54.095Z,2.95
2018-12-15T08:59:23.198Z,2.98
2018-12-15T09:01:52.286Z,2.96
2018-12-15T09:04:21.362Z,2.95
2018-12-15T09:06:50.461Z,2.96
2018-12-15T09:09:19.524Z,3.02
2018-12-15T09:11:48.603Z,3.06
2018-12-15T09:14:17.711Z,3.06
2018-12-15T09:16:50.518Z,3.05
2018-12-15T09:19:19.624Z,3.01
2018-12-15T09:21:48.717Z,2.96
2018-12-15T09:24:17.787Z,2.95
2018-12-15T09:26:47.009Z,2.90
2018-12-15T09:29:16.086Z,2.86
2018-12-15T09:31:45.130Z,2.87
2018-12-15T09:34:14.248Z,2.88
2018-12-15T09:36:50.180Z,2.90
2018-12-15T09:39:19.293Z,2.93
2018-12-15T09:41:48.361Z,2.92
2018-12-15T09:44:17.415Z,2.92
2018-12-15T09:46:46.500Z,2.95
2018-12-15T09:49:17.939Z,2.95
2018-12-15T09:51:44.646Z,2.95
2018-12-15T09:54:13.752Z,3.00
2018-12-15T09:56:42.827Z,3.00
2018-12-15T09:59:11.898Z,3.03
2018-12-15T10:01:41.214Z,3.02
2018-12-15T10:04:10.279Z,3.05
2018-12-15T10:06:39.347Z,3.07
2018-12-15T10:09:08.454Z,3.06
2018-12-15T10:11:37.505Z,3.08
2018-12-15T10:14:06.566Z,3.05
2018-12-15T10:16:35.696Z,3.03
2018-12-15T10:19:04.760Z,3.00
2018-12-15T10:21:33.847Z,3.04
2018-12-15T10:24:03.018Z,3.06
2018-12-15T10:26:32.092Z,3.01
2018-12-15T10:29:01.160Z,2.98
2018-12-15T10:34:14.947Z,2.86
2018-12-15T10:36:47.817Z,2.87
2018-12-15T10:39:16.884Z,2.83
2018-12-15T10:41:45.949Z,2.86
2018-12-15T10:44:15.030Z,2.86
2018-12-15T10:46:44.089Z,2.86
2018-12-15T10:49:13.157Z,2.91
2018-12-15T10:51:42.283Z,2.97
2018-12-15T10:54:11.355Z,3.04
2018-12-15T10:56:44.307Z,3.09
2018-12-15T10:59:13.373Z,3.14
2018-12-15T11:01:42.441Z,3.16
2018-12-15T11:04:11.537Z,3.19
2018-12-15T11:06:40.647Z,3.19
2018-12-15T11:09:09.706Z,3.20
2018-12-15T11:11:38.805Z,3.23
2018-12-15T11:14:07.874Z,3.21
2018-12-15T11:19:37.180Z,3.21
2018-12-15T11:22:03.640Z,3.23
2018-12-15T11:24:32.704Z,3.24
2018-12-15T11:27:01.765Z,3.27
2018-12-15T11:29:30.885Z,3.30
2018-12-15T11:31:59.951Z,3.30
2018-12-15T11:34:29.026Z,3.35
2018-12-15T11:36:58.129Z,3.41
2018-12-15T11:39:27.205Z,3.45
2018-12-15T11:41:56.267Z,3.43
2018-12-15T11:44:25.363Z,3.47
2018-12-15T11:46:54.423Z,3.50
2018-12-15T11:49:23.475Z,3.53
2018-12-15T11:51:52.557Z,3.60
2018-12-15T11:54:21.630Z,3.66
2018-12-15T11:56:50.686Z,3.69
2018-12-15T11:59:19.798Z,3.73
2018-12-15T12:01:48.864Z,3.78
2018-12-15T12:04:17.916Z,3.80
2018-12-15T12:06:47.002Z,3.83
2018-12-15T12:09:16.066Z,3.84
2018-12-15T12:11:45.129Z,3.90
2018-12-15T12:14:14.225Z,3.93
2018-12-15T12:16:43.340Z,3.93
2018-12-15T12:19:12.353Z,3.96
2018-12-15T12:21:41.486Z,3.94
2018-12-15T12:24:10.557Z,3.90
2018-12-15T12:26:39.620Z,3.87
2018-12-15T12:29:08.700Z,3.79
2018-12-15T12:31:37.755Z,3.79
2018-12-15T12:34:06.806Z,3.79
2018-12-15T12:36:35.891Z,3.78
2018-12-15T12:39:04.962Z,3.75
2018-12-15T12:41:34.026Z,3.71
2018-12-15T12:44:03.153Z,3.68
2018-12-15T12:46:32.215Z,3.60
2018-12-15T12:49:01.271Z,3.54
2018-12-15T12:51:30.367Z,3.45
2018-12-15T12:53:59.432Z,3.38
2018-12-15T12:56:28.494Z,3.35
2018-12-15T12:58:57.578Z,3.38
2018-12-15T13:01:26.632Z,3.36
2018-12-15T13:03:55.703Z,3.38
2018-12-15T13:06:24.818Z,3.38
2018-12-15T13:08:53.900Z,3.36
2018-12-15T13:11:22.977Z,3.34
2018-12-15T13:13:52.094Z,3.31
2018-12-15T13:16:21.179Z,3.30
2018-12-15T13:18:50.250Z,3.30
2018-12-15T13:21:19.379Z,3.31
2018-12-15T13:23:48.458Z,3.30
2018-12-15T13:26:17.538Z,3.30
2018-12-15T13:28:46.946Z,3.28
2018-12-15T13:31:16.014Z,3.28
2018-12-15T13:33:45.117Z,3.28
2018-12-15T13:36:14.210Z,3.23
2018-12-15T13:38:43.290Z,3.22
2018-12-15T13:41:12.355Z,3.23
2018-12-15T13:43:41.464Z,3.23
2018-12-15T13:46:10.540Z,3.22
2018-12-15T13:48:39.613Z,3.23
2018-12-15T13:51:08.761Z,3.22
2018-12-15T13:53:37.835Z,3.17
2018-12-15T13:56:23.613Z,3.18
2018-12-15T13:58:52.687Z,3.19
2018-12-15T14:01:21.770Z,3.15
2018-12-15T14:03:50.890Z,3.17
2018-12-15T14:06:19.952Z,3.18
2018-12-15T14:08:49.024Z,3.16
2018-12-15T14:11:18.126Z,3.17
2018-12-15T14:13:47.198Z,3.15
2018-12-15T14:16:28.647Z,3.13
2018-12-15T14:18:57.715Z,3.14
2018-12-15T14:21:26.775Z,3.10
2018-12-15T14:23:55.880Z,3.11
2018-12-15T14:26:24.956Z,3.12
2018-12-15T14:28:54.047Z,3.12
2018-12-15T14:31:23.243Z,3.09
2018-12-15T14:33:52.423Z,3.09
2018-12-15T14:36:21.514Z,3.11
2018-12-15T14:38:50.608Z,3.11
2018-12-15T14:41:19.670Z,3.06
2018-12-15T14:43:48.735Z,3.04
2018-12-15T14:46:17.847Z,3.05
2018-12-15T14:48:46.923Z,3.04
2018-12-15T14:51:15.995Z,3.03
2018-12-15T14:53:45.133Z,3.00
2018-12-15T14:56:14.204Z,2.99
2018-12-15T14:58:43.300Z,2.94
2018-12-15T15:01:12.497Z,2.92
2018-12-15T15:03:41.578Z,2.92
2018-12-15T15:06:15.332Z,2.90
2018-12-15T15:08:44.400Z,2.89
2018-12-15T15:11:13.482Z,2.88
2018-12-15T15:13:42.616Z,2.87
2018-12-15T15:16:26.472Z,2.88
2018-12-15T15:18:55.806Z,2.85
2018-12-15T15:21:24.873Z,2.86
2018-12-15T15:23:53.933Z,2.79
2018-12-15T15:26:23.020Z,2.81
2018-12-15T15:28:52.109Z,2.81
2018-12-15T15:31:21.184Z,2.80
2018-12-15T15:33:50.291Z,2.80
2018-12-15T15:36:24.075Z,2.84
2018-12-15T15:38:53.169Z,2.87
2018-12-15T15:41:22.243Z,2.88
2018-12-15T15:43:51.315Z,2.91
2018-12-15T15:46:20.407Z,2.92
2018-12-15T15:48:49.483Z,2.94
2018-12-15T15:51:18.557Z,2.95
2018-12-15T15:53:47.692Z,2.97
2018-12-15T15:56:16.773Z,2.95
2018-12-15T15:58:45.847Z,2.93
2018-12-15T16:01:14.955Z,2.94
2018-12-15T16:03:44.028Z,2.96
2018-12-15T16:06:26.128Z,2.99
2018-12-15T16:08:55.197Z,3.00
2018-12-15T16:11:24.286Z,3.03
2018-12-15T16:13:53.415Z,3.03
2018-12-15T16:19:15.889Z,3.05
2018-12-15T16:21:44.969Z,3.07
2018-12-15T16:24:14.045Z,3.09
2018-12-15T16:26:43.226Z,3.12
2018-12-15T16:29:12.304Z,3.09
2018-12-15T16:31:41.381Z,3.13
2018-12-15T16:34:10.505Z,3.14
2018-12-15T16:36:39.582Z,3.14
2018-12-15T16:39:08.656Z,3.16
2018-12-15T16:41:42.149Z,3.15
2018-12-15T16:44:06.811Z,3.16
2018-12-15T16:46:35.882Z,3.16
2018-12-15T16:49:06.011Z,3.15
2018-12-15T16:51:34.062Z,3.16
2018-12-15T16:54:03.110Z,3.15
2018-12-15T16:56:32.250Z,3.17
2018-12-15T16:59:01.309Z,3.19
2018-12-15T17:01:30.385Z,3.19
2018-12-15T17:03:59.480Z,3.21
2018-12-15T17:06:32.382Z,3.17
2018-12-15T17:09:01.458Z,3.17
2018-12-15T17:11:30.533Z,3.17
2018-12-15T17:13:59.604Z,3.15
2018-12-15T17:16:28.734Z,3.13
2018-12-15T17:18:57.797Z,3.16
2018-12-15T17:21:26.841Z,3.15
2018-12-15T17:23:55.959Z,3.17
2018-12-15T17:26:29.859Z,3.18
2018-12-15T17:28:58.941Z,3.19
2018-12-15T17:31:28.012Z,3.21
2018-12-15T17:33:57.071Z,3.18
2018-12-15T17:36:49.400Z,3.19
2018-12-15T17:39:18.454Z,3.18
2018-12-15T17:41:47.520Z,3.20
2018-12-15T17:44:16.640Z,3.15
2018-12-15T17:46:45.697Z,3.12
2018-12-15T17:49:14.796Z,3.12
2018-12-15T17:51:43.949Z,3.06
2018-12-15T17:54:13.041Z,3.05
2018-12-15T17:57:03.676Z,3.05
2018-12-15T17:59:32.740Z,3.05
2018-12-15T18:02:01.807Z,3.07
2018-12-15T18:04:30.936Z,3.07
2018-12-15T18:07:00.007Z,3.02
2018-12-15T18:09:29.084Z,3.04
2018-12-15T18:11:58.185Z,3.06
2018-12-15T18:14:27.263Z,3.05
2018-12-15T18:16:56.341Z,3.08
2018-12-15T18:19:25.555Z,3.10
2018-12-15T18:21:54.637Z,3.07
2018-12-15T18:24:23.710Z,3.06
2018-12-15T18:26:52.824Z,3.08
2018-12-15T18:29:21.898Z,3.09
2018-12-15T18:31:50.964Z,3.10
2018-12-15T18:34:20.054Z,3.13
2018-12-15T18:36:49.123Z,3.14
2018-12-15T18:39:18.196Z,3.16
2018-12-15T18:41:48.977Z,3.17
2018-12-15T18:44:18.037Z,3.17
2018-12-15T18:46:47.108Z,3.18
2018-12-15T18:49:16.208Z,3.19
2018-12-15T18:51:45.296Z,3.21
2018-12-15T18:54:14.362Z,3.23
2018-12-15T18:56:43.448Z,3.24
2018-12-15T18:59:12.523Z,3.25
2018-12-15T19:01:41.575Z,3.25
2018-12-15T19:04:10.694Z,3.26
2018-12-15T19:06:39.750Z,3.28
2018-12-15T19:09:08.816Z,3.29
2018-12-15T19:11:37.917Z,3.29
2018-12-15T19:14:07.000Z,3.29
2018-12-15T19:16:36.104Z,3.31
2018-12-15T19:19:05.213Z,3.32
2018-12-15T19:21:34.300Z,3.33
2018-12-15T19:24:03.359Z,3.33
2018-12-15T19:26:34.471Z,3.32
2018-12-15T19:29:03.538Z,3.31
2018-12-15T19:31:32.611Z,3.32
2018-12-15T19:34:01.703Z,3.32
2018-12-15T19:36:30.762Z,3.31
2018-12-15T19:38:59.828Z,3.31
2018-12-15T19:41:28.930Z,3.31
2018-12-15T19:43:58.000Z,3.31
2018-12-15T19:46:32.962Z,3.32
2018-12-15T19:49:02.026Z,3.30
2018-12-15T19:51:31.091Z,3.32
2018-12-15T19:54:00.174Z,3.32
2018-12-15T19:56:29.245Z,3.33
2018-12-15T19:58:58.313Z,3.34
2018-12-15T20:01:27.489Z,3.36
2018-12-15T20:03:56.553Z,3.35
2018-12-15T20:06:25.655Z,3.34
2018-12-15T20:08:54.769Z,3.33
2018-12-15T20:11:23.881Z,3.30
2018-12-15T20:13:52.919Z,3.27
2018-12-15T20:16:22.015Z,3.28
2018-12-15T20:18:51.090Z,3.27
2018-12-15T20:21:20.387Z,3.27
2018-12-15T20:23:49.350Z,3.26
2018-12-15T20:26:18.422Z,3.26
2018-12-15T20:28:47.485Z,3.26
2018-12-15T20:31:16.641Z,3.25
2018-12-15T20:33:45.722Z,3.25
2018-12-15T20:36:14.823Z,3.25
2018-12-15T20:38:43.994Z,3.23
2018-12-15T20:41:13.065Z,3.23
2018-12-15T20:43:42.375Z,3.24
2018-12-15T20:46:11.478Z,3.26
2018-12-15T20:48:40.545Z,3.26
2018-12-15T20:51:09.609Z,3.26
2018-12-15T20:53:38.716Z,3.21
2018-12-15T20:56:07.779Z,3.22
2018-12-15T20:58:36.846Z,3.23
2018-12-15T21:01:05.944Z,3.21
2018-12-15T21:03:35.015Z,3.20
2018-12-15T21:06:04.088Z,3.20
2018-12-15T21:08:34.593Z,3.18
2018-12-15T21:11:02.238Z,3.16
2018-12-15T21:13:31.305Z,3.17
2018-12-15T21:16:00.455Z,3.19
2018-12-15T21:18:29.457Z,3.21
2018-12-15T21:20:58.514Z,3.19
2018-12-15T21:23:27.608Z,3.15
2018-12-15T21:25:56.679Z,3.13
2018-12-15T21:28:25.759Z,3.13
2018-12-15T21:30:54.839Z,3.13
2018-12-15T21:33:23.902Z,3.13
2018-12-15T21:35:52.968Z,3.13
2018-12-15T21:38:22.071Z,3.11
2018-12-15T21:40:51.144Z,3.07
2018-12-15T21:43:20.218Z,3.10
2018-12-15T21:45:49.395Z,3.09
2018-12-15T21:48:18.464Z,3.11
2018-12-15T21:50:47.532Z,3.12
2018-12-15T21:53:16.628Z,3.14
2018-12-15T21:55:45.709Z,3.14
2018-12-15T21:58:14.771Z,3.11
2018-12-15T22:00:43.887Z,3.11
2018-12-15T22:03:12.968Z,3.13
2018-12-15T22:05:42.028Z,3.13
2018-12-15T22:08:11.126Z,3.13
2018-12-15T22:10:40.188Z,3.13
2018-12-15T22:13:09.252Z,3.12
2018-12-15T22:15:38.339Z,3.13
2018-12-15T22:18:07.405Z,3.14
2018-12-15T22:20:36.467Z,3.15
2018-12-15T22:23:05.593Z,3.16
2018-12-15T22:25:34.636Z,3.18
2018-12-15T22:28:03.704Z,3.19
2018-12-15T22:30:32.785Z,3.19
2018-12-15T22:33:01.846Z,3.19
2018-12-15T22:35:30.902Z,3.16
2018-12-15T22:37:59.985Z,3.13
2018-12-15T22:40:29.050Z,3.12
2018-12-15T22:42:58.109Z,3.13
2018-12-15T22:45:27.208Z,3.13
2018-12-15T22:47:56.272Z,3.15
2018-12-15T22:50:25.339Z,3.17
2018-12-15T22:52:54.523Z,3.18
2018-12-15T22:55:23.590Z,3.20
2018-12-15T22:57:52.652Z,3.20
2018-12-15T23:00:21.748Z,3.20
2018-12-15T23:02:50.804Z,3.20
2018-12-15T23:05:19.876Z,3.21
2018-12-15T23:07:48.969Z,3.20
2018-12-15T23:10:18.024Z,3.20
2018-12-15T23:12:47.093Z,3.19
2018-12-15T23:15:16.229Z,3.22
2018-12-15T23:17:45.285Z,3.22
2018-12-15T23:20:14.352Z,3.24
2018-12-15T23:22:43.426Z,3.25
2018-12-15T23:25:12.468Z,3.26
2018-12-15T23:27:41.536Z,3.26
2018-12-15T23:30:10.634Z,3.28
2018-12-15T23:32:39.696Z,3.27
2018-12-15T23:35:08.752Z,3.28
2018-12-15T23:37:37.863Z,3.27
2018-12-15T23:40:06.973Z,3.27
2018-12-15T23:42:36.054Z,3.27
2018-12-15T23:45:05.144Z,3.27
2018-12-15T23:47:34.194Z,3.26
2018-12-15T23:50:03.247Z,3.27
2018-12-15T23:52:32.453Z,3.27
2018-12-15T23:55:01.533Z,3.26
2018-12-15T23:57:30.584Z,3.24
2018-12-15T23:59:59.682Z,3.21
